Terminal Aerodrome Forecast
Issued by NWS Hastings, NE

Home | Current Version | Previous Version | Text Only | Print | Product List | Glossary On
Versions: 1 2 3 4 5 6 7 8 9 10 11 12 13 14 15 16 17 18 19 20 21
000
FTUS43 KGID 240145 AAA
TAFGRI
TAF AMD
KGRI 240145Z 2402/2424 12011KT 2SM BR BKN002
     FM241000 10010KT 1 1/2SM -FZDZ OVC002
     FM241600 09008KT 1SM -DZ OVC002
     FM241800 05007KT 1SM -DZ OVC002
     FM242100 34008KT 3SM -RA OVC003
     FM242300 33012KT 3SM -RASN OVC008=

USA.gov is the U.S. government's official web portal to all federal, state and local government web resources and services.